Time;durP1;ratioP1;P1;durP2;ratioP2;P2;SDS_P1;SDS_P2;PMS_P1;PMS_P2;Temp;Humidity;BMP_temperature;BMP_pressure;BME280_temperature;BME280_humidity;BME280_pressure;Samples;Min_cycle;Max_cycle;Signal;HPM_P1;HPM_P2
2021/04/12 00:01:05;;;;;;;11.67;10.87;;;6.50;99.90;;;;;;5007856;28;20202;-78
2021/04/12 00:03:34;;;;;;;11.93;11.13;;;6.40;99.90;;;;;;5003948;28;20252;-79
2021/04/12 00:06:07;;;;;;;12.10;11.20;;;6.50;99.90;;;;;;5007093;28;20582;-78
2021/04/12 00:08:42;;;;;;;11.70;10.90;;;6.40;99.90;;;;;;5008583;28;20208;-79
2021/04/12 00:11:20;;;;;;;11.80;11.00;;;6.50;99.90;;;;;;5006324;28;20197;-79
2021/04/12 00:13:53;;;;;;;11.47;10.67;;;6.40;99.90;;;;;;5009931;28;20638;-78
2021/04/12 00:16:27;;;;;;;11.50;10.70;;;6.40;99.90;;;;;;5002021;28;20269;-79
2021/04/12 00:18:58;;;;;;;11.20;10.40;;;6.40;99.90;;;;;;5008802;28;20205;-80
2021/04/12 00:21:29;;;;;;;10.40;9.73;;;6.40;99.90;;;;;;5008278;28;20228;-78
2021/04/12 00:24:02;;;;;;;9.67;9.07;;;6.20;99.90;;;;;;5004290;28;20206;-78
2021/04/12 00:26:33;;;;;;;9.80;9.20;;;6.20;99.90;;;;;;5035847;22;20235;-77
2021/04/12 00:29:04;;;;;;;9.43;8.87;;;6.10;99.90;;;;;;5048401;28;20214;-79
2021/04/12 00:31:35;;;;;;;9.47;8.87;;;5.90;99.90;;;;;;5038311;28;20275;-77
2021/04/12 00:34:10;;;;;;;9.37;8.67;;;5.90;99.90;;;;;;5043171;28;20207;-78
2021/04/12 00:36:44;;;;;;;8.70;8.20;;;5.80;99.90;;;;;;5041993;28;20230;-78
2021/04/12 00:39:16;;;;;;;8.60;8.10;;;5.80;99.90;;;;;;5042163;28;20187;-78
2021/04/12 00:41:53;;;;;;;8.67;8.17;;;5.80;99.90;;;;;;5033586;28;20203;-78
2021/04/12 00:44:30;;;;;;;9.10;8.50;;;5.70;99.90;;;;;;5032867;28;20214;-78
2021/04/12 00:47:07;;;;;;;8.80;8.30;;;5.60;99.90;;;;;;5028296;28;20215;-78
2021/04/12 00:50:00;;;;;;;8.20;7.70;;;5.60;99.90;;;;;;5032581;28;20279;-76
2021/04/12 00:52:56;;;;;;;8.87;8.20;;;5.40;99.90;;;;;;5033441;28;20207;-78
2021/04/12 00:55:35;;;;;;;8.30;7.80;;;5.40;99.90;;;;;;5032457;28;20188;-79
2021/04/12 00:58:17;;;;;;;8.40;7.90;;;5.30;99.90;;;;;;5030644;28;20244;-78
2021/04/12 01:00:50;;;;;;;8.73;8.23;;;5.20;99.90;;;;;;5029113;28;20204;-78
2021/04/12 01:03:40;;;;;;;8.20;7.80;;;5.20;99.90;;;;;;5031742;28;20211;-79
2021/04/12 01:06:15;;;;;;;8.80;8.30;;;5.20;99.90;;;;;;5026535;28;20212;-79
2021/04/12 01:09:12;;;;;;;8.70;8.20;;;5.20;99.90;;;;;;5034502;28;20277;-79
2021/04/12 01:12:14;;;;;;;8.87;8.37;;;5.10;99.90;;;;;;5031795;28;20191;-79
2021/04/12 01:15:06;;;;;;;8.40;7.90;;;5.00;99.90;;;;;;5031722;28;20202;-79
2021/04/12 01:17:54;;;;;;;10.07;9.47;;;5.00;99.90;;;;;;5009677;28;20323;-77
2021/04/12 01:21:05;;;;;;;9.10;8.50;;;5.00;99.90;;;;;;5028484;28;20215;-79
2021/04/12 01:23:55;;;;;;;9.47;8.87;;;5.00;99.90;;;;;;5022196;28;20454;-78
2021/04/12 01:27:01;;;;;;;9.50;8.90;;;5.00;99.90;;;;;;5028989;28;20687;-79
2021/04/12 01:30:13;;;;;;;9.57;8.97;;;5.00;99.90;;;;;;5025767;28;20696;-79
2021/04/12 01:33:14;;;;;;;9.30;8.60;;;5.00;99.90;;;;;;5029258;28;20207;-78
2021/04/12 01:36:21;;;;;;;6.53;6.07;;;5.00;99.90;;;;;;5035276;28;20206;-77
2021/04/12 01:39:06;;;;;;;6.77;6.33;;;4.90;99.90;;;;;;5033059;28;20302;-79
2021/04/12 01:41:40;;;;;;;6.53;6.03;;;4.80;99.90;;;;;;5032480;28;20564;-78
2021/04/12 01:44:25;;;;;;;6.93;6.43;;;4.80;99.90;;;;;;5025137;28;20200;-77
2021/04/12 01:47:01;;;;;;;9.70;9.00;;;4.80;99.90;;;;;;5029797;28;20466;-79
2021/04/12 01:49:55;;;;;;;10.10;9.40;;;4.80;99.90;;;;;;5033301;28;20203;-78
2021/04/12 01:52:50;;;;;;;9.83;9.13;;;4.70;99.90;;;;;;5026566;28;20216;-78
2021/04/12 01:55:31;;;;;;;9.70;9.10;;;4.60;99.90;;;;;;5027167;28;20207;-78
2021/04/12 01:58:23;;;;;;;10.03;9.33;;;4.70;99.90;;;;;;5035396;28;20211;-79
2021/04/12 02:01:07;;;;;;;9.83;9.23;;;4.60;99.90;;;;;;5034423;28;20490;-78
2021/04/12 02:03:49;;;;;;;9.53;8.93;;;4.60;99.90;;;;;;5030475;28;20258;-78
2021/04/12 02:06:55;;;;;;;10.30;9.60;;;4.60;99.90;;;;;;5037062;28;20474;-78
2021/04/12 02:09:36;;;;;;;11.17;10.37;;;4.60;99.90;;;;;;4992995;28;20434;-79
2021/04/12 02:12:13;;;;;;;10.53;9.83;;;4.60;99.90;;;;;;5034541;28;20204;-77
2021/04/12 02:14:59;;;;;;;10.23;9.53;;;4.60;99.90;;;;;;5030751;28;20230;-79
2021/04/12 02:17:39;;;;;;;11.03;10.23;;;4.60;99.90;;;;;;5028867;28;20230;-79
2021/04/12 02:20:15;;;;;;;10.80;10.10;;;4.60;99.90;;;;;;5030050;28;20513;-78
2021/04/12 02:23:12;;;;;;;10.27;9.53;;;4.40;99.90;;;;;;5038154;28;20969;-78
2021/04/12 02:26:02;;;;;;;9.70;9.10;;;4.60;99.90;;;;;;5032785;28;20464;-78
2021/04/12 02:28:46;;;;;;;10.60;9.90;;;4.50;99.90;;;;;;5037552;28;20825;-79
2021/04/12 02:31:27;;;;;;;10.40;9.70;;;4.50;99.90;;;;;;5041135;28;20446;-78
2021/04/12 02:33:58;;;;;;;10.93;10.13;;;4.50;99.90;;;;;;5034183;28;20439;-78
2021/04/12 02:36:37;;;;;;;10.27;9.57;;;4.40;99.90;;;;;;5031202;28;20447;-77
2021/04/12 02:39:12;;;;;;;10.37;9.60;;;4.30;99.90;;;;;;5028741;28;20554;-77
2021/04/12 02:41:57;;;;;;;10.57;9.87;;;4.20;99.90;;;;;;5033977;28;20946;-76
2021/04/12 02:44:53;;;;;;;11.23;10.43;;;4.10;99.90;;;;;;5021429;28;20459;-78
2021/04/12 02:47:48;;;;;;;10.43;9.73;;;4.10;99.90;;;;;;5031644;28;20473;-77
2021/04/12 02:50:40;;;;;;;10.70;9.90;;;4.10;99.90;;;;;;5023823;28;20450;-75
2021/04/12 02:53:20;;;;;;;10.70;9.90;;;4.10;99.90;;;;;;5018319;28;21041;-78
2021/04/12 02:56:06;;;;;;;11.30;10.50;;;4.20;99.90;;;;;;5019433;28;20448;-78
2021/04/12 02:59:00;;;;;;;11.27;10.47;;;4.10;99.90;;;;;;5018516;28;21045;-76
2021/04/12 03:02:12;;;;;;;10.30;9.50;;;4.10;99.90;;;;;;5026864;28;20451;-77
2021/04/12 03:04:57;;;;;;;10.97;10.17;;;4.10;99.90;;;;;;5030392;28;20447;-77
2021/04/12 03:08:11;;;;;;;10.43;9.63;;;4.10;99.90;;;;;;5024493;28;20454;-76
2021/04/12 03:11:05;;;;;;;10.07;9.30;;;4.00;99.90;;;;;;4966315;28;20500;-77
2021/04/12 03:14:11;;;;;;;10.57;9.80;;;4.00;99.90;;;;;;4953282;28;20450;-75
2021/04/12 03:17:02;;;;;;;10.70;9.90;;;4.00;99.90;;;;;;4982007;28;20748;-75
2021/04/12 03:20:22;;;;;;;10.83;10.13;;;3.90;99.90;;;;;;5020478;28;20496;-76
2021/04/12 03:23:18;;;;;;;11.60;10.80;;;3.90;99.90;;;;;;4962949;28;20449;-79
2021/04/12 03:26:11;;;;;;;12.17;11.30;;;3.90;99.90;;;;;;5028114;28;20836;-77
2021/04/12 03:29:01;;;;;;;11.50;10.60;;;3.90;99.90;;;;;;5026670;28;20461;-78
2021/04/12 03:31:45;;;;;;;10.93;10.13;;;3.90;99.90;;;;;;5026666;28;20441;-80
2021/04/12 03:34:24;;;;;;;11.63;10.73;;;3.90;99.90;;;;;;5022393;28;20805;-79
2021/04/12 03:37:17;;;;;;;11.33;10.53;;;3.90;99.90;;;;;;5028549;28;20465;-78
2021/04/12 03:39:48;;;;;;;12.80;11.80;;;4.00;99.90;;;;;;5027944;28;20478;-79
2021/04/12 03:42:34;;;;;;;12.63;11.73;;;3.90;99.90;;;;;;5024650;28;20465;-78
2021/04/12 03:45:20;;;;;;;11.43;10.53;;;3.90;99.90;;;;;;5026148;28;20894;-78
2021/04/12 03:48:27;;;;;;;11.57;10.67;;;3.90;99.90;;;;;;5031297;28;20470;-77
2021/04/12 03:51:17;;;;;;;11.30;10.43;;;3.90;99.90;;;;;;5011244;28;20455;-79
2021/04/12 03:54:17;;;;;;;11.97;11.07;;;3.90;99.90;;;;;;5000495;28;20456;-76
2021/04/12 03:57:02;;;;;;;12.53;11.63;;;3.90;99.90;;;;;;5022633;28;20513;-77
2021/04/12 03:59:39;;;;;;;12.63;11.73;;;3.90;99.90;;;;;;5028319;28;20470;-78
2021/04/12 04:02:39;;;;;;;12.30;11.40;;;3.90;99.90;;;;;;5022645;28;20949;-78
2021/04/12 04:05:28;;;;;;;12.73;11.83;;;3.90;99.90;;;;;;5020692;28;20878;-78
2021/04/12 04:08:15;;;;;;;14.03;13.00;;;3.90;99.90;;;;;;5026374;28;20560;-79
2021/04/12 04:11:07;;;;;;;12.83;11.87;;;3.90;99.90;;;;;;5024865;28;20464;-78
2021/04/12 04:13:45;;;;;;;13.27;12.07;;;3.90;99.90;;;;;;5029584;28;20447;-79
2021/04/12 04:16:26;;;;;;;12.70;11.60;;;3.90;99.90;;;;;;5029217;28;20874;-80
2021/04/12 04:19:00;;;;;;;13.33;12.27;;;3.90;99.90;;;;;;5031485;28;21017;-79
2021/04/12 04:21:48;;;;;;;12.73;11.73;;;3.90;99.90;;;;;;5032702;28;20450;-80
2021/04/12 04:24:54;;;;;;;12.70;11.60;;;3.80;99.90;;;;;;5027181;28;20548;-80
2021/04/12 04:27:56;;;;;;;12.87;11.87;;;3.90;99.90;;;;;;5024894;28;20481;-80
2021/04/12 04:30:54;;;;;;;13.60;12.50;;;3.80;99.90;;;;;;5023221;28;20450;-77
2021/04/12 04:33:39;;;;;;;12.80;11.90;;;3.70;99.90;;;;;;5030653;28;20458;-81
2021/04/12 04:36:25;;;;;;;13.80;12.70;;;3.70;99.90;;;;;;5033769;28;20877;-80
2021/04/12 04:39:19;;;;;;;13.70;12.40;;;3.70;99.90;;;;;;5029102;28;20493;-80
2021/04/12 04:41:58;;;;;;;13.03;11.93;;;3.70;99.90;;;;;;5031490;28;20467;-79
2021/04/12 04:44:56;;;;;;;13.23;12.20;;;3.70;99.90;;;;;;5032905;28;20445;-79
2021/04/12 04:47:53;;;;;;;14.77;13.60;;;3.70;99.90;;;;;;5028903;28;20474;-79
2021/04/12 04:50:42;;;;;;;13.17;12.10;;;3.70;99.90;;;;;;5028492;28;20871;-79
2021/04/12 04:53:32;;;;;;;14.07;12.80;;;3.70;99.90;;;;;;5031045;28;20447;-79
2021/04/12 04:56:15;;;;;;;13.63;12.53;;;3.70;99.90;;;;;;5026336;28;20499;-79
2021/04/12 04:58:58;;;;;;;13.80;12.60;;;3.70;99.90;;;;;;5026920;28;20441;-78
2021/04/12 05:01:48;;;;;;;13.80;12.70;;;3.70;99.90;;;;;;5025662;28;20437;-78
2021/04/12 05:04:59;;;;;;;13.87;12.70;;;3.70;99.90;;;;;;5026110;28;20453;-78
2021/04/12 05:08:04;;;;;;;13.70;12.60;;;3.70;99.90;;;;;;5028138;28;20863;-78
2021/04/12 05:10:47;;;;;;;14.47;13.27;;;3.70;99.90;;;;;;5021509;28;20440;-78
2021/04/12 05:13:30;;;;;;;14.00;12.80;;;3.70;99.90;;;;;;5029734;28;20452;-78
2021/04/12 05:16:32;;;;;;;13.93;12.83;;;3.80;99.90;;;;;;5021847;28;20446;-78
2021/04/12 05:19:35;;;;;;;13.63;12.53;;;3.80;99.90;;;;;;5021603;28;20470;-78
2021/04/12 05:22:34;;;;;;;13.57;12.37;;;3.70;99.90;;;;;;5019382;28;20459;-78
2021/04/12 05:25:36;;;;;;;13.57;12.47;;;3.80;99.90;;;;;;5018427;28;20452;-78
2021/04/12 05:28:21;;;;;;;13.67;12.57;;;3.70;99.90;;;;;;5017337;28;20779;-78
2021/04/12 05:31:35;;;;;;;14.30;13.10;;;3.70;99.90;;;;;;5028197;28;20786;-78
2021/04/12 05:34:22;;;;;;;14.30;13.10;;;3.70;99.90;;;;;;5008446;28;20439;-78
2021/04/12 05:37:04;;;;;;;14.77;13.47;;;3.70;99.90;;;;;;5024617;28;20477;-78
2021/04/12 05:40:07;;;;;;;14.10;12.80;;;3.70;99.90;;;;;;5025386;28;20477;-78
2021/04/12 05:43:01;;;;;;;13.27;12.10;;;3.70;99.90;;;;;;4982969;28;20476;-78
2021/04/12 05:46:04;;;;;;;13.53;12.33;;;3.60;99.90;;;;;;5027498;28;20502;-78
2021/04/12 05:49:07;;;;;;;13.33;12.23;;;3.60;99.90;;;;;;5029247;28;20446;-77
2021/04/12 05:51:53;;;;;;;14.40;13.00;;;3.50;99.90;;;;;;5012171;28;20462;-79
2021/04/12 05:54:41;;;;;;;14.77;13.57;;;3.50;99.90;;;;;;5027113;28;20982;-79
2021/04/12 05:57:20;;;;;;;14.50;13.23;;;3.60;99.90;;;;;;5022475;28;20455;-79
2021/04/12 06:00:09;;;;;;;13.63;12.63;;;3.60;99.90;;;;;;5027849;28;20482;-78
2021/04/12 06:02:51;;;;;;;14.17;12.97;;;3.50;99.90;;;;;;5023917;28;20489;-78
2021/04/12 06:05:22;;;;;;;13.57;12.47;;;3.60;99.90;;;;;;5028803;28;20467;-78
2021/04/12 06:08:22;;;;;;;14.57;13.33;;;3.60;99.90;;;;;;5030296;28;20473;-79
2021/04/12 06:11:11;;;;;;;14.23;13.03;;;3.60;99.90;;;;;;5030637;28;20435;-79
2021/04/12 06:14:14;;;;;;;15.17;13.87;;;3.60;99.90;;;;;;5028135;28;20560;-80
2021/04/12 06:17:29;;;;;;;14.33;13.13;;;3.50;99.90;;;;;;5031310;28;20450;-78
2021/04/12 06:20:37;;;;;;;15.20;14.00;;;3.50;99.90;;;;;;5030289;28;20754;-79
2021/04/12 06:23:27;;;;;;;14.77;13.60;;;3.50;99.90;;;;;;5018655;28;20451;-79
2021/04/12 06:26:10;;;;;;;14.53;13.33;;;3.50;99.90;;;;;;5029576;28;20430;-79
2021/04/12 06:29:11;;;;;;;14.40;13.20;;;3.50;99.90;;;;;;5034004;23;20502;-78
2021/04/12 06:32:13;;;;;;;14.23;13.10;;;3.60;99.90;;;;;;5009791;28;20463;-78
2021/04/12 06:35:01;;;;;;;14.83;13.63;;;3.70;99.90;;;;;;5004906;28;20451;-78
2021/04/12 06:37:52;;;;;;;14.43;13.37;;;3.70;99.90;;;;;;5004929;28;20472;-78
2021/04/12 06:40:46;;;;;;;14.90;13.70;;;3.70;99.90;;;;;;5000589;28;20490;-78
2021/04/12 06:43:39;;;;;;;16.23;14.87;;;3.80;99.90;;;;;;4978318;28;20451;-78
2021/04/12 06:46:42;;;;;;;14.90;13.73;;;3.80;99.90;;;;;;4998463;28;20516;-79
2021/04/12 06:49:58;;;;;;;14.30;13.10;;;3.80;99.90;;;;;;5000957;28;20486;-79
2021/04/12 06:53:19;;;;;;;13.87;12.77;;;3.70;99.90;;;;;;5011660;28;20436;-80
2021/04/12 06:56:27;;;;;;;14.20;13.00;;;3.80;99.90;;;;;;5013523;28;20447;-79
2021/04/12 06:59:29;;;;;;;14.80;13.57;;;3.90;99.90;;;;;;5013117;28;20462;-79
2021/04/12 07:02:28;;;;;;;14.87;13.57;;;4.00;99.90;;;;;;5002640;28;20457;-79
2021/04/12 07:05:31;;;;;;;16.03;14.63;;;4.10;99.90;;;;;;4977460;28;20454;-78
2021/04/12 07:08:46;;;;;;;15.43;14.13;;;4.20;99.90;;;;;;5002039;28;20881;-79
2021/04/12 07:11:50;;;;;;;16.33;14.97;;;4.30;99.90;;;;;;4984961;28;20425;-79
2021/04/12 07:14:51;;;;;;;14.77;13.57;;;4.40;99.90;;;;;;5004430;28;20567;-79
2021/04/12 07:17:47;;;;;;;13.97;12.87;;;4.50;99.90;;;;;;5009413;28;20466;-78
2021/04/12 07:20:36;;;;;;;9.50;8.60;;;4.50;99.90;;;;;;5015598;28;20467;-80
2021/04/12 07:23:36;;;;;;;9.00;8.20;;;4.50;99.90;;;;;;4994687;28;20449;-78
2021/04/12 07:26:37;;;;;;;11.40;10.40;;;4.60;99.90;;;;;;4999531;28;20436;-78
2021/04/12 07:29:23;;;;;;;11.70;10.70;;;4.70;99.90;;;;;;5006801;28;20490;-79
2021/04/12 07:32:24;;;;;;;10.53;9.63;;;4.70;99.90;;;;;;5015066;28;20427;-78
2021/04/12 07:35:23;;;;;;;11.13;9.80;;;4.80;99.90;;;;;;5005342;28;20464;-79
2021/04/12 07:38:37;;;;;;;10.33;9.33;;;4.90;99.90;;;;;;5009169;28;20232;-79
2021/04/12 07:41:39;;;;;;;9.47;7.30;;;5.00;99.90;;;;;;5007581;28;20551;-80
2021/04/12 07:44:53;;;;;;;7.80;6.83;;;5.20;99.90;;;;;;5002082;28;20200;-79
2021/04/12 07:47:52;;;;;;;7.60;6.53;;;5.20;99.90;;;;;;5009848;28;20216;-80
2021/04/12 07:50:42;;;;;;;8.73;7.93;;;5.20;99.90;;;;;;5003201;28;20257;-78
2021/04/12 07:53:40;;;;;;;9.30;8.43;;;5.30;99.90;;;;;;5007996;28;20207;-79
2021/04/12 07:56:46;;;;;;;9.93;8.93;;;5.20;99.90;;;;;;5007851;28;20197;-79
2021/04/12 07:59:59;;;;;;;10.77;9.77;;;5.20;99.90;;;;;;4993468;28;20212;-79
2021/04/12 08:03:03;;;;;;;11.93;10.93;;;5.20;99.90;;;;;;5009228;28;20573;-80
2021/04/12 08:06:14;;;;;;;12.67;11.60;;;5.10;99.90;;;;;;5003916;28;20574;-81
2021/04/12 08:09:25;;;;;;;10.53;9.63;;;5.10;99.90;;;;;;5009271;28;20506;-79
2021/04/12 08:12:41;;;;;;;11.90;10.90;;;5.00;99.90;;;;;;5007166;28;20197;-79
2021/04/12 08:16:03;;;;;;;11.17;10.17;;;4.90;99.90;;;;;;5011966;28;20211;-80
2021/04/12 08:18:47;;;;;;;11.20;10.20;;;5.00;99.90;;;;;;5005703;28;20217;-82
2021/04/12 08:22:10;;;;;;;12.00;10.90;;;4.80;99.90;;;;;;5007470;28;20193;-79
2021/04/12 08:24:52;;;;;;;11.93;10.77;;;4.80;99.90;;;;;;5004719;28;21019;-80
2021/04/12 08:27:56;;;;;;;12.47;11.27;;;4.90;99.90;;;;;;5005939;28;20491;-78
2021/04/12 08:31:09;;;;;;;13.20;12.00;;;5.00;99.90;;;;;;5004980;28;20251;-79
2021/04/12 08:34:15;;;;;;;15.13;13.70;;;5.00;99.90;;;;;;5005877;28;20442;-79
2021/04/12 08:37:07;;;;;;;16.47;14.83;;;5.10;99.90;;;;;;5006617;28;20587;-79
2021/04/12 08:40:12;;;;;;;15.50;13.93;;;5.30;99.90;;;;;;5028899;28;20219;-79
2021/04/12 08:43:09;;;;;;;13.37;12.13;;;5.40;99.90;;;;;;5011385;28;20493;-79
2021/04/12 08:46:02;;;;;;;16.13;14.73;;;5.70;99.90;;;;;;5010726;28;20578;-80
2021/04/12 08:48:52;;;;;;;16.67;15.27;;;5.90;99.90;;;;;;5008561;28;20244;-79
2021/04/12 08:51:56;;;;;;;16.17;14.77;;;5.90;99.90;;;;;;5003430;28;20551;-79
2021/04/12 08:54:51;;;;;;;17.33;15.63;;;6.00;99.90;;;;;;4947877;28;20208;-80
2021/04/12 08:58:02;;;;;;;15.87;14.57;;;6.00;99.90;;;;;;5018123;28;20228;-79
2021/04/12 09:01:04;;;;;;;12.43;11.20;;;6.20;99.90;;;;;;4992071;28;20728;-79
2021/04/12 09:04:16;;;;;;;13.10;11.37;;;6.20;99.90;;;;;;4993146;28;20214;-79
2021/04/12 09:07:12;;;;;;;10.73;9.13;;;6.20;99.90;;;;;;5003327;28;20213;-79
2021/04/12 09:10:07;;;;;;;11.43;8.87;;;6.30;99.90;;;;;;4990772;28;20287;-79
2021/04/12 09:12:44;;;;;;;11.73;10.53;;;6.30;99.90;;;;;;5004035;28;20212;-79
2021/04/12 09:15:55;;;;;;;11.47;10.00;;;6.30;99.90;;;;;;5000160;28;20197;-79
2021/04/12 09:19:13;;;;;;;12.53;10.50;;;6.30;99.90;;;;;;4991678;28;20216;-79
2021/04/12 09:22:19;;;;;;;13.03;10.30;;;6.20;99.90;;;;;;4990918;28;20212;-79
2021/04/12 09:25:12;;;;;;;12.33;11.03;;;6.20;99.90;;;;;;5008556;28;20201;-79
2021/04/12 09:28:00;;;;;;;12.77;10.57;;;6.20;99.90;;;;;;5006324;28;20232;-79
2021/04/12 09:30:57;;;;;;;10.83;9.77;;;6.20;99.90;;;;;;5005392;28;20204;-79
2021/04/12 09:34:22;;;;;;;11.37;10.27;;;6.30;99.90;;;;;;5003632;28;20289;-79
2021/04/12 09:37:36;;;;;;;11.53;10.30;;;6.20;99.90;;;;;;4990311;28;20233;-79
2021/04/12 09:40:35;;;;;;;12.97;11.53;;;6.20;99.90;;;;;;4974650;28;20216;-81
2021/04/12 09:43:22;;;;;;;11.90;10.50;;;6.20;99.90;;;;;;5006259;28;20215;-79
2021/04/12 09:46:36;;;;;;;14.27;10.80;;;6.30;99.90;;;;;;5007193;28;20212;-80
2021/04/12 09:49:41;;;;;;;11.70;9.77;;;6.20;99.90;;;;;;5003969;28;20615;-79
2021/04/12 09:52:36;;;;;;;12.13;10.73;;;6.20;99.90;;;;;;5003061;28;20256;-79
2021/04/12 09:55:50;;;;;;;13.00;11.67;;;6.20;99.90;;;;;;4988434;28;20197;-79
2021/04/12 09:59:05;;;;;;;12.07;10.87;;;6.30;99.90;;;;;;5008958;28;20285;-79
2021/04/12 10:01:58;;;;;;;12.23;11.03;;;6.40;99.90;;;;;;5005644;28;20611;-80
2021/04/12 10:05:06;;;;;;;11.40;10.20;;;6.30;99.90;;;;;;4999137;28;20202;-80
2021/04/12 10:07:58;;;;;;;12.63;10.30;;;6.40;99.90;;;;;;4995799;28;20256;-79
2021/04/12 10:10:27;;;;;;;10.87;9.33;;;6.50;99.90;;;;;;5012159;28;20189;-79
2021/04/12 10:13:17;;;;;;;10.23;9.23;;;6.60;99.90;;;;;;5004644;28;20233;-79
2021/04/12 10:15:57;;;;;;;13.30;12.10;;;6.70;99.90;;;;;;5012163;28;20198;-79
2021/04/12 10:18:32;;;;;;;13.87;12.53;;;6.90;99.90;;;;;;5007901;28;20275;-80
2021/04/12 10:21:14;;;;;;;13.50;12.27;;;7.10;99.90;;;;;;5004055;28;20760;-79
2021/04/12 10:23:42;;;;;;;10.07;9.07;;;7.10;99.90;;;;;;5012326;28;20202;-78
2021/04/12 10:26:13;;;;;;;10.30;8.17;;;7.10;99.90;;;;;;5015285;28;20581;-79
2021/04/12 10:28:47;;;;;;;9.97;8.23;;;6.90;99.90;;;;;;5008907;28;20244;-80
2021/04/12 10:31:26;;;;;;;9.33;8.43;;;7.20;99.90;;;;;;5008392;28;20408;-78
2021/04/12 10:34:11;;;;;;;12.80;11.80;;;7.50;99.90;;;;;;5012052;28;20201;-79
2021/04/12 10:36:49;;;;;;;11.40;10.60;;;7.70;99.90;;;;;;5009695;28;20210;-79
2021/04/12 10:39:40;;;;;;;10.47;9.53;;;7.90;99.90;;;;;;5015270;28;20192;-79
2021/04/12 10:42:20;;;;;;;9.67;8.77;;;7.90;99.90;;;;;;5000713;28;20203;-79
2021/04/12 10:44:58;;;;;;;9.93;8.93;;;8.00;99.90;;;;;;5015128;28;20624;-80
2021/04/12 10:47:31;;;;;;;9.27;8.40;;;8.00;99.90;;;;;;5008911;28;20224;-79
2021/04/12 10:50:07;;;;;;;8.17;7.37;;;8.00;99.90;;;;;;4999884;28;20699;-79
2021/04/12 10:53:01;;;;;;;8.93;8.17;;;8.20;99.90;;;;;;5007404;28;20205;-79
2021/04/12 10:55:33;;;;;;;8.73;7.90;;;8.30;99.90;;;;;;5010109;28;20200;-80
2021/04/12 10:58:17;;;;;;;8.40;7.73;;;8.20;99.90;;;;;;5001172;28;20592;-81
2021/04/12 11:00:50;;;;;;;8.47;7.63;;;8.40;99.90;;;;;;5007957;28;20286;-78
2021/04/12 11:03:38;;;;;;;7.93;7.23;;;8.50;99.90;;;;;;5009033;28;20658;-79
2021/04/12 11:06:44;;;;;;;7.53;6.83;;;8.40;99.90;;;;;;5010096;28;20347;-79
2021/04/12 11:09:46;;;;;;;9.37;8.57;;;8.30;99.90;;;;;;4995574;28;20200;-79
2021/04/12 11:12:21;;;;;;;8.37;7.73;;;8.10;99.90;;;;;;5007927;28;20192;-79
2021/04/12 11:14:54;;;;;;;9.00;8.23;;;8.00;99.90;;;;;;5008765;28;20204;-79
2021/04/12 11:17:33;;;;;;;9.13;8.53;;;7.90;99.90;;;;;;5005263;28;20227;-79
2021/04/12 11:20:08;;;;;;;9.07;8.37;;;7.90;99.90;;;;;;5014866;28;20270;-79
2021/04/12 11:22:48;;;;;;;8.63;7.90;;;8.00;99.90;;;;;;5013277;28;20199;-79
2021/04/12 11:25:20;;;;;;;8.57;7.80;;;8.40;99.90;;;;;;5015232;28;20261;-79
2021/04/12 11:28:08;;;;;;;7.53;6.97;;;8.80;99.90;;;;;;5014259;28;20366;-80
2021/04/12 11:30:45;;;;;;;7.47;6.90;;;9.20;99.90;;;;;;5012837;28;20244;-78
2021/04/12 11:33:31;;;;;;;7.30;6.80;;;9.40;99.90;;;;;;5000431;28;20207;-79
2021/04/12 11:36:09;;;;;;;7.53;6.83;;;9.40;99.90;;;;;;5004350;28;20561;-80
2021/04/12 11:38:38;;;;;;;7.83;7.23;;;9.70;99.90;;;;;;5014703;28;20227;-79
2021/04/12 11:41:13;;;;;;;7.50;6.83;;;9.50;99.90;;;;;;5009858;28;20216;-80
2021/04/12 11:43:44;;;;;;;6.77;6.30;;;9.60;99.90;;;;;;5006652;28;20654;-80
2021/04/12 11:46:19;;;;;;;7.07;6.47;;;9.30;99.90;;;;;;5005721;28;20200;-79
2021/04/12 11:48:51;;;;;;;7.70;7.00;;;8.90;99.90;;;;;;5003626;28;20279;-79
2021/04/12 11:51:26;;;;;;;6.40;6.00;;;8.60;99.90;;;;;;5008300;28;20211;-79
2021/04/12 11:53:55;;;;;;;7.70;7.10;;;8.30;99.90;;;;;;5008012;28;20258;-79
2021/04/12 11:56:43;;;;;;;8.47;7.87;;;8.20;99.90;;;;;;5020405;28;20203;-79
2021/04/12 11:59:19;;;;;;;7.83;7.20;;;8.00;99.90;;;;;;5004005;28;20192;-79
2021/04/12 12:01:50;;;;;;;8.50;7.80;;;8.00;99.90;;;;;;5008229;28;20214;-80
2021/04/12 12:04:40;;;;;;;8.43;7.73;;;8.00;99.90;;;;;;5009251;28;20204;-79
2021/04/12 12:07:33;;;;;;;8.00;7.50;;;8.10;99.90;;;;;;5010157;28;20230;-79
2021/04/12 12:10:14;;;;;;;8.07;7.47;;;8.20;99.90;;;;;;5002087;28;20196;-82
2021/04/12 12:12:56;;;;;;;7.73;7.20;;;8.60;99.90;;;;;;5005812;28;20224;-79
2021/04/12 12:15:47;;;;;;;8.03;7.43;;;8.70;99.90;;;;;;5006871;28;20581;-79
2021/04/12 12:18:22;;;;;;;8.40;7.80;;;8.60;99.90;;;;;;5004807;28;20712;-80
2021/04/12 12:20:53;;;;;;;8.93;8.13;;;8.60;99.90;;;;;;5007604;28;20275;-80
2021/04/12 12:23:38;;;;;;;7.70;7.00;;;8.50;99.90;;;;;;5011256;28;20686;-79
2021/04/12 12:26:13;;;;;;;8.00;7.40;;;8.40;99.90;;;;;;5006489;28;20196;-81
2021/04/12 12:28:48;;;;;;;8.27;7.67;;;8.30;99.90;;;;;;5055370;23;20234;-79
2021/04/12 12:31:32;;;;;;;7.77;7.20;;;8.30;99.90;;;;;;5047131;28;20233;-77
2021/04/12 12:34:18;;;;;;;7.17;6.53;;;8.30;99.90;;;;;;5051816;28;20210;-78
2021/04/12 12:36:55;;;;;;;7.07;6.47;;;8.50;99.90;;;;;;5049081;28;20213;-79
2021/04/12 12:39:36;;;;;;;7.03;6.53;;;8.70;99.90;;;;;;5042544;28;20683;-79
2021/04/12 12:42:06;;;;;;;9.00;6.23;;;9.00;99.90;;;;;;5026367;28;20210;-79
2021/04/12 12:44:34;;;;;;;7.57;6.87;;;9.30;99.90;;;;;;5037726;28;20203;-79
2021/04/12 12:47:09;;;;;;;7.60;6.73;;;9.20;99.90;;;;;;5036588;28;20204;-79
2021/04/12 12:49:39;;;;;;;6.87;6.37;;;9.50;99.90;;;;;;5034965;28;20200;-79
2021/04/12 12:52:11;;;;;;;7.60;7.00;;;9.70;99.90;;;;;;5038140;28;20195;-78
2021/04/12 12:54:43;;;;;;;7.50;6.90;;;9.70;99.90;;;;;;5039114;28;20668;-79
2021/04/12 12:57:20;;;;;;;7.53;7.03;;;9.80;99.90;;;;;;5032581;28;20631;-79
2021/04/12 12:59:49;;;;;;;6.83;6.13;;;9.80;99.90;;;;;;5040217;28;20215;-78
2021/04/12 13:02:31;;;;;;;6.30;5.80;;;10.00;99.90;;;;;;5036008;28;20195;-79
2021/04/12 13:05:08;;;;;;;8.13;7.33;;;10.10;99.90;;;;;;5032711;28;20196;-78
2021/04/12 13:07:36;;;;;;;6.60;6.13;;;10.10;99.90;;;;;;5032824;28;20219;-79
2021/04/12 13:10:08;;;;;;;7.20;6.60;;;10.10;99.90;;;;;;5035399;28;20552;-79
2021/04/12 13:12:37;;;;;;;7.10;6.60;;;10.10;99.90;;;;;;5033058;28;20195;-79
2021/04/12 13:15:25;;;;;;;6.77;6.27;;;10.20;99.90;;;;;;5027955;28;20203;-78
2021/04/12 13:17:53;;;;;;;6.40;5.93;;;10.10;99.90;;;;;;5036619;28;20226;-79
2021/04/12 13:20:30;;;;;;;6.77;6.20;;;9.90;99.90;;;;;;5034256;28;20298;-78
2021/04/12 13:23:05;;;;;;;6.30;5.83;;;9.70;99.90;;;;;;5020911;28;20195;-79
2021/04/12 13:25:37;;;;;;;6.43;5.93;;;9.80;99.90;;;;;;5038561;28;20197;-79
2021/04/12 13:28:11;;;;;;;7.10;6.50;;;9.80;99.90;;;;;;5032900;28;20241;-79
2021/04/12 13:30:41;;;;;;;7.00;6.40;;;9.60;99.90;;;;;;5033492;28;20199;-79
2021/04/12 13:33:10;;;;;;;6.30;5.70;;;9.60;99.90;;;;;;5033554;28;20196;-79
2021/04/12 13:35:41;;;;;;;6.53;5.93;;;9.60;99.90;;;;;;5034530;28;20581;-79
2021/04/12 13:38:13;;;;;;;5.90;5.40;;;9.50;99.90;;;;;;5038060;28;20233;-79
2021/04/12 13:40:46;;;;;;;6.10;5.70;;;9.50;99.90;;;;;;5036601;28;20220;-79
2021/04/12 13:43:15;;;;;;;6.73;6.20;;;9.50;99.90;;;;;;5029375;28;20283;-76
2021/04/12 13:45:44;;;;;;;7.30;6.60;;;9.40;99.90;;;;;;5024635;28;20197;-77
2021/04/12 13:48:13;;;;;;;7.67;6.07;;;9.40;99.90;;;;;;5027084;28;20223;-77
2021/04/12 13:50:53;;;;;;;6.47;5.97;;;9.50;99.90;;;;;;5028989;28;20201;-76
2021/04/12 13:53:34;;;;;;;6.10;5.70;;;9.60;99.90;;;;;;5017061;28;20204;-77
2021/04/12 13:56:12;;;;;;;6.73;6.10;;;9.60;99.90;;;;;;5032298;28;20260;-77
2021/04/12 13:58:41;;;;;;;6.10;5.60;;;9.50;99.90;;;;;;5008596;28;20220;-77
2021/04/12 14:01:11;;;;;;;6.90;6.40;;;9.50;99.90;;;;;;5021802;28;20696;-76
2021/04/12 14:03:53;;;;;;;7.27;6.77;;;9.60;99.90;;;;;;5016288;28;20212;-77
2021/04/12 14:06:26;;;;;;;7.33;6.73;;;9.50;99.90;;;;;;5016558;28;20203;-76
2021/04/12 14:08:57;;;;;;;7.30;6.70;;;9.40;99.90;;;;;;5027648;28;20277;-77
2021/04/12 14:11:28;;;;;;;7.40;6.90;;;9.30;99.90;;;;;;5022719;28;20689;-76
2021/04/12 14:14:04;;;;;;;7.23;6.63;;;9.40;99.90;;;;;;5030645;28;20202;-76
2021/04/12 14:16:35;;;;;;;7.63;6.93;;;9.30;99.90;;;;;;5028235;28;20192;-77
2021/04/12 14:19:07;;;;;;;10.20;6.90;;;9.30;99.90;;;;;;5027573;28;20214;-76
2021/04/12 14:21:36;;;;;;;7.07;6.57;;;9.30;99.90;;;;;;5027836;28;20458;-76
2021/04/12 14:24:13;;;;;;;7.53;6.83;;;9.30;99.90;;;;;;5034982;28;20214;-77
2021/04/12 14:26:44;;;;;;;7.10;6.60;;;9.30;99.90;;;;;;5039286;28;20195;-78
2021/04/12 14:29:23;;;;;;;7.40;6.80;;;9.40;99.90;;;;;;5036627;28;20217;-77
2021/04/12 14:31:50;;;;;;;7.40;6.90;;;9.40;99.90;;;;;;5032954;28;20205;-76